createdAt,value
2019-03-05T00:00:18.243Z,4.75
2019-03-05T00:01:19.350Z,4.95
2019-03-05T00:02:20.377Z,4.79
2019-03-05T00:03:21.409Z,4.84
2019-03-05T00:04:21.605Z,4.98
2019-03-05T00:05:22.078Z,4.98
2019-03-05T00:06:22.894Z,5.13
2019-03-05T00:07:23.374Z,5.01
2019-03-05T00:08:24.027Z,5.1
2019-03-05T00:09:24.500Z,5.05
2019-03-05T00:10:25.030Z,5.08
2019-03-05T00:11:25.224Z,5.16
2019-03-05T00:12:25.705Z,5.31
2019-03-05T00:13:27.031Z,5.26
2019-03-05T00:14:28.069Z,5.36
2019-03-05T00:15:28.468Z,5.34
2019-03-05T00:16:29.793Z,5.36
2019-03-05T00:17:30.568Z,5.43
2019-03-05T00:18:31.514Z,5.37
2019-03-05T00:19:31.986Z,5.29
2019-03-05T00:20:32.744Z,5.29
2019-03-05T00:21:34.053Z,5.31
2019-03-05T00:22:34.084Z,5.19
2019-03-05T00:23:34.554Z,5.26
2019-03-05T00:24:35.303Z,5.2
2019-03-05T00:25:36.331Z,5.12
2019-03-05T00:26:37.368Z,5.15
2019-03-05T00:27:37.926Z,5.01
2019-03-05T00:28:38.414Z,5.04
2019-03-05T00:29:38.891Z,5
2019-03-05T00:30:39.140Z,4.86
2019-03-05T00:31:40.175Z,4.94
2019-03-05T00:32:40.929Z,4.87
2019-03-05T00:33:41.680Z,4.86
2019-03-05T00:34:42.160Z,4.89
2019-03-05T00:35:42.366Z,4.86
2019-03-05T00:36:43.120Z,4.83
2019-03-05T00:37:43.602Z,4.89
2019-03-05T00:38:44.538Z,4.84
2019-03-05T00:39:44.735Z,4.84
2019-03-05T00:40:44.927Z,4.83
2019-03-05T00:41:46.236Z,4.9
2019-03-05T00:42:46.267Z,4.83
2019-03-05T00:43:46.746Z,4.86
2019-03-05T00:44:47.555Z,4.84
2019-03-05T00:45:48.029Z,4.83
2019-03-05T00:46:48.783Z,4.79
2019-03-05T00:47:50.094Z,4.83
2019-03-05T00:48:50.572Z,4.84
2019-03-05T00:49:50.774Z,4.84
2019-03-05T00:50:51.810Z,4.74
2019-03-05T00:51:52.010Z,4.82
2019-03-05T00:52:53.046Z,4.79
2019-03-05T00:53:53.802Z,4.82
2019-03-05T00:54:54.002Z,4.78
2019-03-05T00:55:54.477Z,4.78
2019-03-05T00:56:55.227Z,4.79
2019-03-05T00:57:55.709Z,4.74
2019-03-05T00:58:56.631Z,4.68
2019-03-05T00:59:57.383Z,4.7
2019-03-05T01:00:58.144Z,4.74
2019-03-05T01:01:58.624Z,4.75
2019-03-05T01:02:59.375Z,4.79
2019-03-05T01:04:00.404Z,4.83
2019-03-05T01:05:00.448Z,4.7
2019-03-05T01:06:01.215Z,4.7
2019-03-05T01:07:02.530Z,4.68
2019-03-05T01:08:03.569Z,4.7
2019-03-05T01:09:04.340Z,4.68
2019-03-05T01:10:04.817Z,4.71
2019-03-05T01:11:05.290Z,4.82
2019-03-05T01:12:05.765Z,4.86
2019-03-05T01:13:06.517Z,4.79
2019-03-05T01:14:07.059Z,4.79
2019-03-05T01:15:07.305Z,4.79
2019-03-05T01:16:07.781Z,4.82
2019-03-05T01:17:08.562Z,4.89
2019-03-05T01:18:09.596Z,4.9
2019-03-05T01:19:13.416Z,4.9
2019-03-05T01:20:13.523Z,4.86
2019-03-05T01:21:13.733Z,4.9
2019-03-05T01:22:15.599Z,4.84
2019-03-05T01:23:15.670Z,4.94
2019-03-05T01:24:16.144Z,4.83
2019-03-05T01:25:17.450Z,4.86
2019-03-05T01:26:18.214Z,4.86
2019-03-05T01:27:18.420Z,4.83
2019-03-05T01:28:18.617Z,4.84
2019-03-05T01:29:19.273Z,4.87
2019-03-05T01:30:20.052Z,4.87
2019-03-05T01:31:20.524Z,4.82
2019-03-05T01:32:21.041Z,4.94
2019-03-05T01:33:22.073Z,4.86
2019-03-05T01:34:21.826Z,4.82
2019-03-05T01:35:22.302Z,4.83
2019-03-05T01:36:22.780Z,4.87
2019-03-05T01:37:23.539Z,4.86
2019-03-05T01:38:24.571Z,4.9
2019-03-05T01:39:25.266Z,4.9
2019-03-05T01:40:26.294Z,4.94
2019-03-05T01:41:27.320Z,4.87
2019-03-05T01:42:28.630Z,5.04
2019-03-05T01:43:29.129Z,5.08
2019-03-05T01:44:30.169Z,5.07
2019-03-05T01:45:30.940Z,5.01
2019-03-05T01:46:31.203Z,5.02
2019-03-05T01:47:32.232Z,5.07
2019-03-05T01:47:41.988Z,5.07
2019-03-05T01:48:42.901Z,5.08
2019-03-05T01:49:43.932Z,5.16
2019-03-05T01:50:44.688Z,5.12
2019-03-05T01:51:45.452Z,5.19
2019-03-05T01:52:45.939Z,5.13
2019-03-05T01:53:46.692Z,5.04
2019-03-05T01:54:46.897Z,5.12
2019-03-05T01:55:47.660Z,5.04
2019-03-05T01:56:48.135Z,4.94
2019-03-05T01:57:49.159Z,4.86
2019-03-05T01:58:50.362Z,4.94
2019-03-05T01:59:50.845Z,4.79
2019-03-05T02:00:51.048Z,4.87
2019-03-05T02:01:51.355Z,4.79
2019-03-05T02:02:51.832Z,4.83
2019-03-05T02:03:52.305Z,4.71
2019-03-05T02:04:53.055Z,4.86
2019-03-05T02:05:53.255Z,4.83
2019-03-05T02:06:54.286Z,4.89
2019-03-05T02:07:54.762Z,4.87
2019-03-05T02:08:54.697Z,4.89
2019-03-05T02:09:55.451Z,4.9
2019-03-05T02:10:56.208Z,4.89
2019-03-05T02:11:57.531Z,4.86
2019-03-05T02:12:57.347Z,4.95
2019-03-05T02:13:57.848Z,4.83
2019-03-05T02:14:58.606Z,4.87
2019-03-05T02:15:59.077Z,4.9
2019-03-05T02:16:59.550Z,4.82
2019-03-05T02:18:00.305Z,4.82
2019-03-05T02:19:00.598Z,4.79
2019-03-05T02:20:01.887Z,4.82
2019-03-05T02:21:01.915Z,4.78
2019-03-05T02:22:02.717Z,4.83
2019-03-05T02:23:03.539Z,4.75
2019-03-05T02:24:03.872Z,4.94
2019-03-05T02:25:04.895Z,4.89
2019-03-05T02:26:04.642Z,4.78
2019-03-05T02:27:05.389Z,4.84
2019-03-05T02:28:06.415Z,4.86
2019-03-05T02:29:07.596Z,4.84
2019-03-05T02:30:08.970Z,4.82
2019-03-05T02:31:09.557Z,4.79
2019-03-05T02:32:11.008Z,4.86
2019-03-05T02:33:10.784Z,4.78
2019-03-05T02:34:11.534Z,4.76
2019-03-05T02:35:12.405Z,4.7
2019-03-05T02:36:13.291Z,4.75
2019-03-05T02:37:14.152Z,4.7
2019-03-05T02:38:14.731Z,4.79
2019-03-05T02:39:15.808Z,4.82
2019-03-05T02:40:15.935Z,4.82
2019-03-05T02:41:17.521Z,4.79
2019-03-05T02:42:18.360Z,4.92
2019-03-05T02:43:18.952Z,4.83
2019-03-05T02:44:20.255Z,4.87
2019-03-05T02:45:20.847Z,4.79
2019-03-05T02:46:21.446Z,4.76
2019-03-05T02:47:22.486Z,4.79
2019-03-05T02:48:23.369Z,4.76
2019-03-05T02:49:23.398Z,4.79
2019-03-05T02:50:25.077Z,4.83
2019-03-05T02:51:25.946Z,4.83
2019-03-05T02:52:26.841Z,4.9
2019-03-05T02:53:27.504Z,4.78
2019-03-05T02:54:28.673Z,4.76
2019-03-05T02:55:30.108Z,4.79
2019-03-05T02:56:30.145Z,4.84
2019-03-05T02:57:30.942Z,4.87
2019-03-05T02:58:31.710Z,4.92
2019-03-05T02:59:33.306Z,4.87
2019-03-05T03:00:34.346Z,4.83
2019-03-05T03:01:34.816Z,4.83
2019-03-05T03:02:36.133Z,4.79
2019-03-05T03:03:37.004Z,4.86
2019-03-05T03:04:36.758Z,4.87
2019-03-05T03:05:38.363Z,5.04
2019-03-05T03:06:38.677Z,5.04
2019-03-05T03:07:40.639Z,5
2019-03-05T03:08:41.811Z,5.04
2019-03-05T03:09:43.160Z,5.19
2019-03-05T03:10:43.773Z,5.18
2019-03-05T03:11:44.085Z,5.29
2019-03-05T03:12:45.465Z,5.37
2019-03-05T03:13:45.552Z,5.38
2019-03-05T03:14:47.547Z,5.41
2019-03-05T03:15:47.598Z,5.54
2019-03-05T03:16:48.375Z,5.51
2019-03-05T03:17:50.034Z,5.58
2019-03-05T03:18:50.696Z,5.44
2019-03-05T03:19:51.613Z,5.47
2019-03-05T03:20:51.940Z,5.59
2019-03-05T03:21:53.255Z,5.56
2019-03-05T03:22:53.045Z,5.55
2019-03-05T03:23:54.771Z,5.55
2019-03-05T03:24:55.367Z,5.52
2019-03-05T03:25:56.795Z,5.56
2019-03-05T03:26:58.098Z,5.54
2019-03-05T03:27:57.978Z,5.61
2019-03-05T03:28:58.576Z,5.62
2019-03-05T03:29:59.370Z,5.64
2019-03-05T03:31:01.046Z,5.74
2019-03-05T03:32:02.110Z,5.7
2019-03-05T03:33:02.415Z,5.7
2019-03-05T03:34:02.968Z,5.76
2019-03-05T03:35:03.905Z,5.74
2019-03-05T03:36:04.602Z,5.74
2019-03-05T03:37:05.555Z,5.81
2019-03-05T03:38:06.453Z,5.7
2019-03-05T03:39:08.038Z,5.76
2019-03-05T03:40:08.393Z,5.72
2019-03-05T03:41:08.980Z,5.69
2019-03-05T03:42:09.934Z,5.69
2019-03-05T03:43:10.275Z,5.65
2019-03-05T03:44:11.422Z,5.76
2019-03-05T03:45:12.316Z,5.8
2019-03-05T03:46:12.620Z,5.88
2019-03-05T03:47:13.374Z,5.79
2019-03-05T03:48:14.511Z,5.84
2019-03-05T03:49:14.832Z,5.83
2019-03-05T03:50:16.432Z,5.88
2019-03-05T03:51:16.515Z,5.94
2019-03-05T03:52:17.301Z,5.95
2019-03-05T03:53:18.888Z,5.95
2019-03-05T03:54:19.869Z,5.88
2019-03-05T03:55:21.126Z,5.95
2019-03-05T03:56:21.457Z,5.91
2019-03-05T03:57:22.494Z,5.87
2019-03-05T03:58:23.076Z,5.9
2019-03-05T03:59:23.936Z,5.94
2019-03-05T04:00:24.254Z,5.88
2019-03-05T04:01:25.467Z,5.92
2019-03-05T04:02:26.353Z,5.98
2019-03-05T04:03:26.666Z,5.9
2019-03-05T04:04:28.267Z,5.95
2019-03-05T04:05:28.365Z,5.91
2019-03-05T04:06:29.046Z,6.05
2019-03-05T04:07:29.652Z,6.09
2019-03-05T04:08:30.520Z,6.1
2019-03-05T04:09:31.832Z,6.05
2019-03-05T04:10:32.631Z,5.99
2019-03-05T04:11:33.705Z,6.09
2019-03-05T04:12:34.880Z,6.22
2019-03-05T04:13:36.514Z,6.19
2019-03-05T04:14:36.157Z,6.17
2019-03-05T04:15:36.510Z,6.17
2019-03-05T04:16:36.827Z,6.15
2019-03-05T04:17:37.868Z,6.19
2019-03-05T04:18:39.174Z,6.19
2019-03-05T04:19:40.538Z,6.15
2019-03-05T04:20:40.585Z,6.12
2019-03-05T04:21:40.901Z,6.1
2019-03-05T04:22:41.210Z,6.16
2019-03-05T04:23:42.541Z,6.13
2019-03-05T04:24:42.862Z,6.12
2019-03-05T04:25:44.188Z,6.19
2019-03-05T04:26:45.220Z,6.22
2019-03-05T04:27:46.531Z,6.25
2019-03-05T04:28:47.566Z,6.13
2019-03-05T04:29:48.880Z,6.25
2019-03-05T04:30:49.384Z,6.17
2019-03-05T04:31:50.410Z,6.19
2019-03-05T04:32:51.449Z,6.22
2019-03-05T04:33:52.320Z,6.22
2019-03-05T04:34:52.633Z,6.28
2019-03-05T04:35:53.190Z,6.22
2019-03-05T04:36:53.376Z,6.28
2019-03-05T04:37:54.440Z,6.34
2019-03-05T04:38:54.639Z,6.2
2019-03-05T04:39:55.106Z,6.31
2019-03-05T04:40:56.291Z,6.2
2019-03-05T04:41:56.757Z,6.13
2019-03-05T04:42:57.231Z,6.19
2019-03-05T04:43:57.703Z,6.1
2019-03-05T04:44:58.174Z,6.17
2019-03-05T04:45:58.368Z,6.07
2019-03-05T04:46:59.399Z,5.99
2019-03-05T04:48:00.425Z,6.09
2019-03-05T04:49:01.171Z,6.09
2019-03-05T04:50:02.223Z,5.95
2019-03-05T04:51:02.883Z,6.06
2019-03-05T04:52:03.931Z,6.07
2019-03-05T04:53:04.679Z,6.05
2019-03-05T04:54:04.869Z,6.1
2019-03-05T04:55:05.615Z,6.07
2019-03-05T04:56:06.083Z,6.02
2019-03-05T04:57:06.273Z,6.05
2019-03-05T04:58:06.460Z,5.97
2019-03-05T04:59:06.651Z,5.92
2019-03-05T05:00:06.867Z,5.95
2019-03-05T05:01:08.050Z,5.95
2019-03-05T05:02:08.248Z,5.97
2019-03-05T05:03:08.507Z,5.98
2019-03-05T05:04:09.533Z,5.95
2019-03-05T05:05:10.358Z,5.98
2019-03-05T05:06:10.828Z,5.97
2019-03-05T05:07:11.304Z,5.9
2019-03-05T05:08:12.904Z,5.84
2019-03-05T05:09:13.092Z,5.74
2019-03-05T05:10:14.115Z,5.8
2019-03-05T05:11:14.332Z,5.73
2019-03-05T05:12:15.076Z,5.73
2019-03-05T05:13:15.547Z,5.77
2019-03-05T05:14:16.637Z,5.7
2019-03-05T05:15:17.386Z,5.62
2019-03-05T05:16:18.131Z,5.59
2019-03-05T05:17:18.881Z,5.55
2019-03-05T05:18:19.907Z,5.52
2019-03-05T05:19:20.661Z,5.58
2019-03-05T05:20:20.848Z,5.51
2019-03-05T05:21:21.483Z,5.54
2019-03-05T05:22:21.954Z,5.55
2019-03-05T05:23:22.703Z,5.46
2019-03-05T05:24:22.893Z,5.44
2019-03-05T05:25:23.641Z,5.44
2019-03-05T05:26:24.114Z,5.44
2019-03-05T05:27:24.587Z,5.4
2019-03-05T05:28:24.819Z,5.41
2019-03-05T05:29:25.012Z,5.43
2019-03-05T05:30:26.045Z,5.44
2019-03-05T05:31:25.969Z,5.44
2019-03-05T05:32:26.714Z,5.41
2019-03-05T05:33:27.193Z,5.46
2019-03-05T05:34:27.665Z,5.44
2019-03-05T05:35:28.438Z,5.52
2019-03-05T05:36:29.750Z,5.46
2019-03-05T05:37:31.055Z,5.41
2019-03-05T05:38:31.250Z,5.41
2019-03-05T05:39:31.719Z,5.44
2019-03-05T05:40:32.525Z,5.44
2019-03-05T05:41:33.456Z,5.4
2019-03-05T05:42:34.555Z,5.34
2019-03-05T05:43:34.746Z,5.47
2019-03-05T05:44:35.491Z,5.41
2019-03-05T05:45:35.959Z,5.46
2019-03-05T05:46:36.501Z,5.51
2019-03-05T05:47:36.968Z,5.52
2019-03-05T05:48:37.440Z,5.43
2019-03-05T05:49:38.742Z,5.55
2019-03-05T05:50:38.487Z,5.55
2019-03-05T05:51:38.717Z,5.47
2019-03-05T05:52:39.184Z,5.51
2019-03-05T05:53:40.282Z,5.55
2019-03-05T05:54:41.310Z,5.54
2019-03-05T05:55:42.056Z,5.58
2019-03-05T05:56:42.525Z,5.55
2019-03-05T05:57:42.714Z,5.56
2019-03-05T05:58:42.904Z,5.46
2019-03-05T05:59:44.001Z,5.43
2019-03-05T06:00:45.035Z,5.55
2019-03-05T06:01:45.818Z,5.44
2019-03-05T06:02:46.572Z,5.44
2019-03-05T06:03:47.596Z,5.52
2019-03-05T06:04:48.344Z,5.51
2019-03-05T06:05:49.099Z,5.4
2019-03-05T06:06:49.566Z,5.37
2019-03-05T06:07:50.037Z,5.36
2019-03-05T06:08:50.505Z,5.26
2019-03-05T06:09:51.868Z,5.25
2019-03-05T06:10:54.084Z,5.26
2019-03-05T06:11:54.573Z,5.31
2019-03-05T06:12:55.685Z,5.23
2019-03-05T06:13:56.434Z,5.02
2019-03-05T06:14:57.464Z,5.02
2019-03-05T06:15:58.494Z,4.98
2019-03-05T06:16:58.966Z,4.95
2019-03-05T06:17:59.990Z,4.84
2019-03-05T06:19:00.465Z,4.84
2019-03-05T06:20:01.292Z,4.89
2019-03-05T06:21:01.765Z,4.82
2019-03-05T06:22:02.971Z,4.71
2019-03-05T06:23:03.795Z,4.56
2019-03-05T06:24:04.645Z,4.52
2019-03-05T06:25:06.379Z,4.56
2019-03-05T06:26:09.822Z,4.48
2019-03-05T06:27:10.364Z,4.48
2019-03-05T06:28:11.393Z,4.45
2019-03-05T06:29:11.865Z,4.48
2019-03-05T06:30:12.617Z,4.49
2019-03-05T06:31:13.713Z,4.49
2019-03-05T06:32:14.343Z,4.5
2019-03-05T06:33:15.564Z,4.48
2019-03-05T06:34:16.072Z,4.45
2019-03-05T06:35:17.963Z,4.39
2019-03-05T06:36:17.712Z,4.4
2019-03-05T06:37:18.483Z,4.46
2019-03-05T06:38:19.237Z,4.45
2019-03-05T06:39:19.713Z,4.5
2019-03-05T06:40:20.191Z,4.48
2019-03-05T06:41:20.995Z,4.45
2019-03-05T06:42:21.348Z,4.42
2019-03-05T06:43:22.369Z,4.53
2019-03-05T06:44:23.869Z,4.45
2019-03-05T06:45:24.519Z,4.52
2019-03-05T06:46:25.296Z,4.48
2019-03-05T06:47:25.334Z,4.56
2019-03-05T06:48:26.917Z,4.58
2019-03-05T06:49:27.674Z,4.53
2019-03-05T06:50:28.714Z,4.63
2019-03-05T06:51:29.465Z,4.67
2019-03-05T06:52:29.949Z,4.74
2019-03-05T06:53:31.065Z,4.84
2019-03-05T06:54:31.536Z,4.83
2019-03-05T06:55:32.355Z,4.79
2019-03-05T06:56:33.103Z,5.02
2019-03-05T06:57:33.590Z,5.05
2019-03-05T06:58:34.060Z,5.1
2019-03-05T06:59:35.057Z,5.22
2019-03-05T07:00:36.382Z,5.22
2019-03-05T07:01:36.228Z,5.16
2019-03-05T07:02:36.954Z,5.25
2019-03-05T07:03:37.355Z,5.34
2019-03-05T07:04:37.831Z,5.4
2019-03-05T07:05:38.955Z,5.49
2019-03-05T07:06:39.347Z,5.41
2019-03-05T07:07:39.378Z,5.49
2019-03-05T07:08:40.837Z,5.46
2019-03-05T07:09:40.882Z,5.51
2019-03-05T07:10:42.072Z,5.49
2019-03-05T07:11:42.744Z,5.46
2019-03-05T07:12:43.725Z,5.52
2019-03-05T07:13:44.729Z,5.47
2019-03-05T07:14:45.993Z,5.58
2019-03-05T07:15:46.922Z,5.58
2019-03-05T07:16:47.543Z,5.64
2019-03-05T07:17:49.035Z,5.58
2019-03-05T07:18:49.812Z,5.47
2019-03-05T07:20:00.530Z,5.55
2019-03-05T07:21:02.037Z,5.55
2019-03-05T07:22:02.269Z,5.43
2019-03-05T07:23:03.020Z,5.55
2019-03-05T07:24:03.779Z,5.51
2019-03-05T07:25:04.818Z,5.49
2019-03-05T07:26:05.284Z,5.55
2019-03-05T07:27:05.843Z,5.58
2019-03-05T07:28:06.685Z,5.51
2019-03-05T07:29:07.005Z,5.49
2019-03-05T07:30:08.040Z,5.55
2019-03-05T07:31:08.925Z,5.64
2019-03-05T07:32:10.509Z,6.01
2019-03-05T07:33:10.617Z,6.05
2019-03-05T07:34:11.395Z,6.52
2019-03-05T07:35:12.151Z,6.71
2019-03-05T07:36:12.353Z,7.91
2019-03-05T07:37:14.132Z,7.93
2019-03-05T07:38:13.348Z,7.95
2019-03-05T07:39:14.112Z,7.93
2019-03-05T07:40:18.214Z,8.54
2019-03-05T07:41:16.144Z,8.99
2019-03-05T07:42:18.700Z,9.13
2019-03-05T07:43:18.370Z,9.09
2019-03-05T07:44:19.773Z,9.42
2019-03-05T07:45:19.964Z,9.67
2019-03-05T07:46:20.267Z,9.92
2019-03-05T07:47:21.081Z,10.55
2019-03-05T07:48:22.677Z,11.01
2019-03-05T07:49:22.712Z,11.41
2019-03-05T07:50:23.474Z,11.85
2019-03-05T07:51:24.401Z,12.28
2019-03-05T07:52:24.887Z,12.57
2019-03-05T07:53:25.441Z,12.88
2019-03-05T07:54:27.408Z,13.2
2019-03-05T07:55:28.383Z,12.88
2019-03-05T07:56:29.426Z,13.24
2019-03-05T07:57:33.676Z,13.2
2019-03-05T07:57:43.104Z,13.24
2019-03-05T07:57:53.397Z,13.24
2019-03-05T07:58:02.410Z,13.37
2019-03-05T07:59:01.005Z,13.42
2019-03-05T08:00:01.223Z,13.05
2019-03-05T08:01:01.981Z,12.23
2019-03-05T08:02:03.427Z,11.37
2019-03-05T08:03:04.466Z,11.19
2019-03-05T08:04:05.224Z,10.87
2019-03-05T08:05:06.271Z,10.72
2019-03-05T08:06:07.035Z,10.45
2019-03-05T08:07:07.515Z,10.28
2019-03-05T08:08:08.274Z,10.15
2019-03-05T08:09:08.812Z,9.88
2019-03-05T08:10:09.437Z,9.73
2019-03-05T08:11:10.198Z,9.34
2019-03-05T08:12:10.956Z,8.84
2019-03-05T08:13:11.430Z,8.74
2019-03-05T08:14:12.181Z,8.53
2019-03-05T08:15:16.811Z,8.17
2019-03-05T08:15:26.043Z,8.11
2019-03-05T08:15:36.071Z,8.06
2019-03-05T08:16:35.033Z,7.66
2019-03-05T08:17:35.388Z,7.43
2019-03-05T08:18:36.424Z,7.32
2019-03-05T08:19:36.524Z,7.23
2019-03-05T08:20:37.005Z,7.21
2019-03-05T08:21:37.199Z,7.23
2019-03-05T08:22:38.575Z,7.37
2019-03-05T08:23:39.174Z,7.4
2019-03-05T08:24:40.207Z,7.44
2019-03-05T08:25:40.253Z,7.44
2019-03-05T08:26:40.764Z,7.58
2019-03-05T08:27:41.522Z,7.69
2019-03-05T08:28:42.275Z,7.78
2019-03-05T08:29:42.309Z,7.87
2019-03-05T08:30:43.414Z,8.21
2019-03-05T08:31:44.181Z,8.38
2019-03-05T08:32:45.574Z,8.34
2019-03-05T08:33:46.057Z,8.36
2019-03-05T08:34:46.810Z,8.49
2019-03-05T08:35:47.286Z,8.9
2019-03-05T08:36:47.518Z,9.49
2019-03-05T08:37:48.583Z,9.63
2019-03-05T08:38:49.070Z,10.15
2019-03-05T08:39:49.108Z,10.51
2019-03-05T08:40:49.602Z,10.57
2019-03-05T08:41:51.195Z,10.71
2019-03-05T08:42:51.972Z,10.65
2019-03-05T08:43:55.208Z,10.75
2019-03-05T08:44:55.410Z,10.61
2019-03-05T08:45:55.610Z,10.71
2019-03-05T08:46:56.550Z,10.89
2019-03-05T08:47:56.771Z,11.3
2019-03-05T08:48:57.261Z,11.83
2019-03-05T08:49:58.295Z,11.95
2019-03-05T08:50:58.963Z,11.73
2019-03-05T08:51:58.995Z,11.83
2019-03-05T08:52:59.757Z,12.62
2019-03-05T08:54:00.076Z,13.21
2019-03-05T08:55:00.880Z,13.78
2019-03-05T08:56:01.652Z,13.86
2019-03-05T08:57:02.881Z,14.18
2019-03-05T08:58:03.702Z,14.85
2019-03-05T08:59:03.748Z,15.12
2019-03-05T09:00:04.798Z,15.62
2019-03-05T09:01:04.833Z,15.66
2019-03-05T09:02:04.961Z,16.13
2019-03-05T09:03:05.447Z,16.65
2019-03-05T09:04:06.208Z,16.26
2019-03-05T09:05:06.972Z,15.92
2019-03-05T09:06:07.458Z,15.33
2019-03-05T09:07:08.695Z,14.87
2019-03-05T09:08:08.468Z,14.79
2019-03-05T09:09:09.510Z,14.44
2019-03-05T09:10:10.275Z,14.01
2019-03-05T09:11:10.607Z,13.85
2019-03-05T09:12:11.653Z,13.71
2019-03-05T09:13:12.976Z,13.86
2019-03-05T09:14:13.214Z,13.31
2019-03-05T09:15:13.993Z,13.27
2019-03-05T09:16:14.756Z,12.98
2019-03-05T09:17:15.719Z,12.54
2019-03-05T09:18:16.211Z,12.94
2019-03-05T09:19:20.289Z,13.13
2019-03-05T09:20:17.882Z,13.21
2019-03-05T09:21:18.928Z,12.93
2019-03-05T09:22:19.539Z,13.19
2019-03-05T09:23:20.299Z,13.58
2019-03-05T09:24:21.065Z,13.33
2019-03-05T09:25:25.500Z,13.23
2019-03-05T09:25:33.088Z,13.26
2019-03-05T09:26:36.049Z,13.16
2019-03-05T09:26:56.073Z,13.08
2019-03-05T09:27:58.780Z,13.12
2019-03-05T09:28:03.201Z,13.11
2019-03-05T09:29:03.558Z,13.37
2019-03-05T09:30:04.039Z,13.13
2019-03-05T09:31:06.698Z,12.9
2019-03-05T09:31:17.970Z,12.9
2019-03-05T09:31:28.390Z,12.86
2019-03-05T09:31:38.859Z,12.91
2019-03-05T09:31:49.146Z,13.02
2019-03-05T09:31:59.294Z,13.01
2019-03-05T09:32:09.799Z,13.01
2019-03-05T09:32:18.974Z,13.05
2019-03-05T09:32:27.485Z,13.09
2019-03-05T09:33:30.964Z,12.88
2019-03-05T09:33:36.924Z,12.9
2019-03-05T09:34:37.608Z,12.87
2019-03-05T09:35:38.363Z,12.63
2019-03-05T09:36:52.607Z,12.65
2019-03-05T09:37:54.155Z,12.8
2019-03-05T09:38:02.863Z,12.84
2019-03-05T09:39:06.001Z,12.78
2019-03-05T09:39:13.280Z,12.81
2019-03-05T09:40:11.205Z,12.78
2019-03-05T09:41:15.950Z,12.54
2019-03-05T09:41:25.036Z,12.44
2019-03-05T09:41:35.849Z,12.36
2019-03-05T09:41:46.274Z,12.29
2019-03-05T09:41:53.509Z,12.33
2019-03-05T09:42:53.499Z,12.14
2019-03-05T09:43:53.985Z,12.08
2019-03-05T09:44:55.019Z,12.1
2019-03-05T09:45:55.229Z,12.05
2019-03-05T09:46:57.113Z,11.93
2019-03-05T09:47:58.149Z,11.88
2019-03-05T09:48:58.988Z,11.52
2019-03-05T09:49:59.743Z,11.43
2019-03-05T09:51:00.653Z,11.4
2019-03-05T09:52:02.252Z,11.81
2019-03-05T09:53:06.804Z,11.53
2019-03-05T09:53:15.915Z,11.52
2019-03-05T09:53:26.577Z,11.56
2019-03-05T09:53:35.680Z,11.56
2019-03-05T09:54:33.968Z,11.4
2019-03-05T09:55:35.013Z,11.48
2019-03-05T09:56:35.778Z,11.35
2019-03-05T09:57:37.375Z,11.15
2019-03-05T09:58:36.866Z,11.25
2019-03-05T09:59:37.903Z,11.22
2019-03-05T10:00:38.101Z,11.12
2019-03-05T10:01:38.585Z,11.01
2019-03-05T10:02:44.328Z,11.1
2019-03-05T10:02:52.540Z,11.18
2019-03-05T10:03:02.820Z,11.16
2019-03-05T10:03:10.403Z,11.13
2019-03-05T10:04:12.710Z,11.02
2019-03-05T10:04:24.007Z,11.07
2019-03-05T10:04:34.493Z,11.07
2019-03-05T10:04:43.669Z,11.15
2019-03-05T10:04:54.872Z,11.25
2019-03-05T10:05:05.222Z,11.35
2019-03-05T10:05:15.575Z,11.41
2019-03-05T10:05:22.957Z,11.52
2019-03-05T10:06:23.822Z,11.77
2019-03-05T10:07:24.581Z,11.63
2019-03-05T10:08:35.250Z,12.03
2019-03-05T10:09:36.226Z,11.97
2019-03-05T10:10:36.714Z,12
2019-03-05T10:11:37.551Z,12.3
2019-03-05T10:12:38.313Z,12.2
2019-03-05T10:13:43.270Z,12.32
2019-03-05T10:13:52.607Z,12.26
2019-03-05T10:14:01.478Z,12.18
2019-03-05T10:15:00.625Z,12.11
2019-03-05T10:16:01.964Z,11.99
2019-03-05T10:17:01.342Z,12.3
2019-03-05T10:18:14.404Z,12.18
2019-03-05T10:19:13.069Z,12.37
2019-03-05T10:20:13.832Z,12.54
2019-03-05T10:21:14.890Z,12.44
2019-03-05T10:22:16.675Z,12.32
2019-03-05T10:23:16.430Z,12.35
2019-03-05T10:24:17.194Z,12.58
2019-03-05T10:25:18.994Z,12.26
2019-03-05T10:26:20.411Z,12.21
2019-03-05T10:27:20.925Z,12.21
2019-03-05T10:28:22.255Z,13.08
2019-03-05T10:29:22.637Z,13.33
2019-03-05T10:30:26.197Z,13.28
2019-03-05T10:31:27.533Z,13.01
2019-03-05T10:32:28.018Z,13.4
2019-03-05T10:33:28.502Z,13.78
2019-03-05T10:34:28.983Z,13.57
2019-03-05T10:35:29.459Z,13.21
2019-03-05T10:36:30.216Z,12.7
2019-03-05T10:37:30.698Z,12.51
2019-03-05T10:38:31.180Z,12.47
2019-03-05T10:39:32.946Z,12.55
2019-03-05T10:40:33.463Z,12.18
2019-03-05T10:41:34.227Z,11.74
2019-03-05T10:42:34.719Z,11.86
2019-03-05T10:43:35.540Z,12.57
2019-03-05T10:44:40.237Z,13.37
2019-03-05T10:44:49.343Z,13.36
2019-03-05T10:44:59.649Z,13.45
2019-03-05T10:45:09.428Z,13.52
2019-03-05T10:45:20.562Z,13.55
2019-03-05T10:45:29.138Z,13.64
2019-03-05T10:46:27.969Z,14.08
2019-03-05T10:47:29.075Z,14.44
2019-03-05T10:48:31.699Z,14.74
2019-03-05T10:49:32.219Z,14.45
2019-03-05T10:50:32.694Z,14.34
2019-03-05T10:51:33.178Z,14.18
2019-03-05T10:52:34.311Z,13.5
2019-03-05T10:53:34.801Z,12.87
2019-03-05T10:54:35.286Z,12.15
2019-03-05T10:55:36.398Z,11.78
2019-03-05T10:56:37.445Z,12.21
2019-03-05T10:57:38.812Z,12.66
2019-03-05T10:58:39.737Z,12.29
2019-03-05T10:59:43.789Z,12.69
2019-03-05T10:59:53.516Z,12.8
2019-03-05T11:00:04.317Z,12.9
2019-03-05T11:00:14.793Z,12.87
2019-03-05T11:00:23.996Z,12.99
2019-03-05T11:00:33.655Z,13.03
2019-03-05T11:01:35.153Z,13.33
2019-03-05T11:01:42.875Z,13.21
2019-03-05T11:02:43.889Z,13.54
2019-03-05T11:03:44.998Z,13.76
2019-03-05T11:04:48.538Z,14
2019-03-05T11:04:57.071Z,13.98
2019-03-05T11:05:58.179Z,14.4
2019-03-05T11:06:57.362Z,14.45
2019-03-05T11:07:58.249Z,13.97
2019-03-05T11:08:59.118Z,14.03
2019-03-05T11:10:00.356Z,13.97
2019-03-05T11:11:12.521Z,13.79
2019-03-05T11:11:15.645Z,13.8
2019-03-05T11:11:22.799Z,13.57
2019-03-05T11:12:21.972Z,13.01
2019-03-05T11:13:22.549Z,12.63
2019-03-05T11:14:22.509Z,12.55
2019-03-05T11:15:24.141Z,12.32
2019-03-05T11:16:32.062Z,12.21
2019-03-05T11:16:34.629Z,12.15
2019-03-05T11:17:36.196Z,12.53
2019-03-05T11:18:36.439Z,12.66
2019-03-05T11:19:38.715Z,12.72
2019-03-05T11:20:37.293Z,12.57
2019-03-05T11:21:38.334Z,12.44
2019-03-05T11:22:38.715Z,12.36
2019-03-05T11:23:39.757Z,12.32
2019-03-05T11:24:41.090Z,12.54
2019-03-05T11:25:42.344Z,12.54
2019-03-05T11:26:44.609Z,12.33
2019-03-05T11:27:46.660Z,12.66
2019-03-05T11:27:53.941Z,12.66
2019-03-05T11:28:59.699Z,12.8
2019-03-05T11:29:04.486Z,12.81
2019-03-05T11:30:09.040Z,12.81
2019-03-05T11:31:07.394Z,12.63
2019-03-05T11:32:08.788Z,12.51
2019-03-05T11:33:09.280Z,12.39
2019-03-05T11:34:09.848Z,12.47
2019-03-05T11:35:10.821Z,12.14
2019-03-05T11:36:11.315Z,12.4
2019-03-05T11:37:12.070Z,12.36
2019-03-05T11:38:15.944Z,12.53
2019-03-05T11:39:14.721Z,12.93
2019-03-05T11:40:22.226Z,13.05
2019-03-05T11:40:25.609Z,12.99
2019-03-05T11:41:26.379Z,12.86
2019-03-05T11:42:26.860Z,12.94
2019-03-05T11:43:27.070Z,12.83
2019-03-05T11:44:28.386Z,12.69
2019-03-05T11:45:31.998Z,12.8
2019-03-05T11:46:35.313Z,12.78
2019-03-05T11:46:42.324Z,12.68
2019-03-05T11:47:42.263Z,12.57
2019-03-05T11:48:43.581Z,12.23
2019-03-05T11:49:44.067Z,12.3
2019-03-05T11:50:44.858Z,12.12
2019-03-05T11:51:45.168Z,12.3
2019-03-05T11:52:50.102Z,12.39
2019-03-05T11:52:59.149Z,12.44
2019-03-05T11:53:07.178Z,12.53
2019-03-05T11:54:07.503Z,12.57
2019-03-05T11:55:08.267Z,12.65
2019-03-05T11:56:09.031Z,12.62
2019-03-05T11:57:09.236Z,12.68
2019-03-05T11:58:09.838Z,12.51
2019-03-05T11:59:10.371Z,12.43
2019-03-05T12:00:10.859Z,12.43
2019-03-05T12:01:11.920Z,12.58
2019-03-05T12:02:22.856Z,12.66
2019-03-05T12:03:22.808Z,12.53
2019-03-05T12:04:24.413Z,12.32
2019-03-05T12:05:24.970Z,12.28
2019-03-05T12:06:25.180Z,12.11
2019-03-05T12:07:26.270Z,11.81
2019-03-05T12:08:26.755Z,11.95
2019-03-05T12:09:28.095Z,12.18
2019-03-05T12:10:28.575Z,12.23
2019-03-05T12:11:29.063Z,12.36
2019-03-05T12:12:30.416Z,12.43
2019-03-05T12:13:30.960Z,12.39
2019-03-05T12:14:35.071Z,12.29
2019-03-05T12:14:42.746Z,12.37
2019-03-05T12:15:42.007Z,12.29
2019-03-05T12:16:43.105Z,12.39
2019-03-05T12:17:43.307Z,12.66
2019-03-05T12:18:47.963Z,12.63
2019-03-05T12:19:45.723Z,12.53
2019-03-05T12:20:46.291Z,12.44
2019-03-05T12:21:51.043Z,12.4
2019-03-05T12:21:57.393Z,12.37
2019-03-05T12:22:57.630Z,12.47
2019-03-05T12:23:58.946Z,12.62
2019-03-05T12:25:04.656Z,12.93
2019-03-05T12:25:10.070Z,12.93
2019-03-05T12:26:10.548Z,12.99
2019-03-05T12:27:11.589Z,13.2
2019-03-05T12:28:13.101Z,13.4
2019-03-05T12:29:13.896Z,13.61